createdAt,value
2019-05-07T00:04:42.869Z,77.10
2019-05-07T00:07:13.637Z,76.70
2019-05-07T00:09:44.494Z,76.90
2019-05-07T00:12:15.368Z,76.90
2019-05-07T00:14:58.188Z,77.10
2019-05-07T00:17:18.658Z,77.10
2019-05-07T00:19:49.479Z,76.80
2019-05-07T00:22:22.038Z,76.70
2019-05-07T00:24:52.521Z,76.80
2019-05-07T00:27:23.366Z,76.80
2019-05-07T00:29:54.224Z,76.40
2019-05-07T00:32:25.154Z,76.40
2019-05-07T00:34:57.833Z,76.00
2019-05-07T00:37:32.139Z,76.10
2019-05-07T00:40:03.489Z,76.70
2019-05-07T00:42:35.713Z,75.70
2019-05-07T00:45:16.932Z,76.20
2019-05-07T00:47:42.621Z,76.40
2019-05-07T00:50:14.800Z,76.20
2019-05-07T00:52:45.604Z,76.40
2019-05-07T00:55:16.568Z,76.20
2019-05-07T00:57:47.231Z,76.10
2019-05-07T01:00:18.375Z,76.20
2019-05-07T01:02:52.548Z,76.20
2019-05-07T01:05:23.595Z,76.00
2019-05-07T01:07:54.342Z,75.60
2019-05-07T01:10:25.276Z,75.70
2019-05-07T01:12:59.040Z,75.90
2019-05-07T01:15:31.569Z,76.00
2019-05-07T01:18:02.714Z,75.90
2019-05-07T01:20:33.075Z,76.30
2019-05-07T01:23:05.191Z,76.20
2019-05-07T01:25:35.999Z,75.90
2019-05-07T01:28:07.094Z,75.50
2019-05-07T01:30:38.046Z,75.10
2019-05-07T01:33:12.257Z,75.00
2019-05-07T01:35:42.725Z,74.70
2019-05-07T01:38:14.127Z,74.90
2019-05-07T01:40:45.193Z,74.90
2019-05-07T01:43:16.127Z,75.00
2019-05-07T01:45:49.728Z,75.00
2019-05-07T01:48:19.539Z,74.70
2019-05-07T01:50:52.362Z,74.30
2019-05-07T01:53:22.829Z,74.30
2019-05-07T01:55:53.728Z,74.00
2019-05-07T01:58:24.605Z,73.80
2019-05-07T02:00:55.558Z,73.20
2019-05-07T02:03:27.532Z,73.10
2019-05-07T02:05:59.588Z,73.20
2019-05-07T02:08:32.868Z,72.90
2019-05-07T02:11:05.194Z,72.80
2019-05-07T02:13:35.974Z,72.70
2019-05-07T02:16:06.889Z,72.50
2019-05-07T02:18:37.900Z,72.30
2019-05-07T02:21:08.740Z,72.20
2019-05-07T02:23:42.410Z,72.10
2019-05-07T02:26:13.334Z,72.00
2019-05-07T02:28:44.246Z,72.00
2019-05-07T02:31:15.367Z,71.80
2019-05-07T02:33:46.408Z,71.60
2019-05-07T02:36:17.396Z,71.50
2019-05-07T02:38:49.568Z,71.20
2019-05-07T02:41:23.330Z,70.90
2019-05-07T02:43:54.495Z,70.60
2019-05-07T02:46:31.618Z,70.50
2019-05-07T02:49:02.877Z,70.40
2019-05-07T02:51:36.142Z,70.00
2019-05-07T02:54:08.288Z,70.20
2019-05-07T02:56:39.117Z,70.00
2019-05-07T02:59:13.327Z,69.90
2019-05-07T03:01:43.257Z,69.70
2019-05-07T03:04:15.543Z,69.60
2019-05-07T03:06:46.822Z,69.60
2019-05-07T03:09:17.887Z,69.30
2019-05-07T03:11:48.675Z,69.30
2019-05-07T03:14:19.375Z,69.30
2019-05-07T03:16:53.277Z,68.60
2019-05-07T03:19:24.269Z,68.60
2019-05-07T03:21:55.202Z,68.50
2019-05-07T03:24:28.132Z,68.40
2019-05-07T03:27:02.903Z,68.20
2019-05-07T03:29:33.446Z,67.90
2019-05-07T03:32:06.484Z,67.80
2019-05-07T03:34:39.103Z,67.50
2019-05-07T03:37:13.474Z,67.20
2019-05-07T03:39:43.856Z,67.10
2019-05-07T03:42:14.696Z,66.00
2019-05-07T03:44:46.628Z,65.60
2019-05-07T03:47:18.798Z,65.90
2019-05-07T03:49:50.090Z,65.30
2019-05-07T03:52:24.122Z,65.10
2019-05-07T03:54:53.976Z,64.80
2019-05-07T03:57:25.336Z,64.50
2019-05-07T03:59:56.227Z,64.70
2019-05-07T04:02:27.080Z,64.30
2019-05-07T04:04:57.939Z,64.00
2019-05-07T04:07:29.008Z,63.40
2019-05-07T04:09:59.923Z,63.50
2019-05-07T04:12:30.752Z,59.60
2019-05-07T04:15:03.505Z,59.60
2019-05-07T04:17:34.295Z,60.40
2019-05-07T04:20:05.234Z,60.10
2019-05-07T04:22:36.149Z,60.40
2019-05-07T04:25:09.761Z,60.40
2019-05-07T04:27:46.286Z,59.30
2019-05-07T04:30:14.455Z,59.70
2019-05-07T04:32:46.689Z,60.10
2019-05-07T04:35:19.045Z,58.90
2019-05-07T04:37:49.988Z,59.00
2019-05-07T04:40:24.029Z,59.40
2019-05-07T04:42:54.013Z,59.60
2019-05-07T04:45:25.142Z,58.90
2019-05-07T04:47:56.026Z,58.90
2019-05-07T04:50:42.005Z,59.00
2019-05-07T04:53:02.857Z,58.70
2019-05-07T04:55:36.727Z,57.90
2019-05-07T04:58:09.033Z,57.80
2019-05-07T05:00:42.817Z,58.30
2019-05-07T05:03:13.248Z,58.60
2019-05-07T05:05:44.187Z,57.40
2019-05-07T05:08:15.120Z,57.10
2019-05-07T05:10:46.043Z,57.70
2019-05-07T05:13:18.051Z,57.90
2019-05-07T05:15:48.986Z,56.80
2019-05-07T05:18:21.766Z,55.70
2019-05-07T05:20:53.480Z,55.30
2019-05-07T05:23:25.709Z,55.10
2019-05-07T05:25:56.670Z,55.80
2019-05-07T05:28:27.545Z,55.70
2019-05-07T05:30:59.700Z,56.50
2019-05-07T05:33:32.248Z,56.80
2019-05-07T05:36:03.044Z,56.60
2019-05-07T05:38:35.099Z,56.80
2019-05-07T05:41:06.100Z,57.00
2019-05-07T05:43:38.449Z,56.90
2019-05-07T05:46:12.163Z,57.10
2019-05-07T05:48:43.099Z,56.70
2019-05-07T05:51:15.256Z,56.60
2019-05-07T05:53:47.265Z,56.50
2019-05-07T05:56:19.462Z,56.80
2019-05-07T05:58:52.529Z,57.40
2019-05-07T06:01:24.086Z,57.20
2019-05-07T06:03:56.275Z,57.40
2019-05-07T06:06:28.376Z,57.50
2019-05-07T06:09:01.942Z,57.50
2019-05-07T06:11:34.174Z,58.20
2019-05-07T06:14:06.366Z,57.50
2019-05-07T06:16:39.388Z,58.10
2019-05-07T06:19:12.961Z,57.80
2019-05-07T06:21:45.260Z,57.60
2019-05-07T06:24:17.425Z,56.70
2019-05-07T06:26:48.831Z,56.80
2019-05-07T06:29:20.247Z,57.20
2019-05-07T06:31:53.073Z,57.30
2019-05-07T06:34:23.966Z,56.90
2019-05-07T06:36:54.812Z,57.00
2019-05-07T06:39:27.107Z,56.90
2019-05-07T06:42:01.939Z,56.50
2019-05-07T06:44:32.080Z,56.90
2019-05-07T06:47:03.044Z,56.40
2019-05-07T06:49:33.837Z,55.10
2019-05-07T06:52:04.739Z,55.70
2019-05-07T06:54:35.647Z,56.20
2019-05-07T06:57:06.703Z,56.40
2019-05-07T06:59:39.031Z,55.40
2019-05-07T07:02:12.779Z,53.30
2019-05-07T07:04:44.641Z,51.80
2019-05-07T07:07:26.283Z,53.20
2019-05-07T07:09:51.945Z,54.60
2019-05-07T07:12:26.142Z,55.30
2019-05-07T07:14:58.115Z,54.90
2019-05-07T07:17:29.325Z,56.00
2019-05-07T07:20:01.866Z,56.60
2019-05-07T07:22:32.481Z,57.40
2019-05-07T07:25:06.520Z,57.70
2019-05-07T07:27:35.843Z,58.70
2019-05-07T07:30:12.753Z,59.30
2019-05-07T07:32:44.118Z,59.70
2019-05-07T07:35:15.735Z,59.70
2019-05-07T07:37:46.555Z,60.30
2019-05-07T07:40:22.280Z,60.70
2019-05-07T07:42:52.538Z,61.30
2019-05-07T07:45:23.461Z,61.90
2019-05-07T07:47:54.220Z,62.40
2019-05-07T07:50:25.066Z,62.50
2019-05-07T07:52:55.934Z,64.40
2019-05-07T07:55:27.981Z,64.30
2019-05-07T07:58:02.528Z,65.10
2019-05-07T08:00:33.774Z,66.30
2019-05-07T08:03:05.842Z,65.70
2019-05-07T08:05:36.800Z,65.80
2019-05-07T08:08:07.828Z,67.70
2019-05-07T08:10:39.060Z,66.80
2019-05-07T08:13:12.147Z,66.60
2019-05-07T08:15:43.015Z,67.30
2019-05-07T08:18:14.026Z,67.70
2019-05-07T08:20:44.960Z,67.50
2019-05-07T08:23:16.475Z,67.50
2019-05-07T08:25:48.496Z,68.70
2019-05-07T08:28:22.817Z,69.00
2019-05-07T08:30:54.379Z,68.70
2019-05-07T08:33:26.575Z,70.30
2019-05-07T08:35:59.027Z,69.40
2019-05-07T08:38:32.755Z,69.20
2019-05-07T08:41:03.625Z,68.50
2019-05-07T08:43:34.830Z,68.80
2019-05-07T08:46:07.211Z,68.20
2019-05-07T08:48:39.474Z,68.00
2019-05-07T08:51:11.883Z,68.10
2019-05-07T08:53:42.990Z,69.30
2019-05-07T08:56:14.015Z,69.70
2019-05-07T08:58:45.293Z,69.80
2019-05-07T09:01:16.044Z,69.00
2019-05-07T09:03:47.144Z,69.50
2019-05-07T09:06:19.484Z,68.90
2019-05-07T09:08:52.640Z,68.90
2019-05-07T09:11:23.742Z,68.80
2019-05-07T09:13:54.579Z,68.80
2019-05-07T09:16:25.576Z,68.80
2019-05-07T09:18:57.090Z,69.60
2019-05-07T09:21:28.019Z,70.10
2019-05-07T09:23:59.024Z,70.70
2019-05-07T09:26:32.352Z,71.20
2019-05-07T09:29:04.630Z,71.70
2019-05-07T09:31:37.529Z,72.10
2019-05-07T09:34:08.482Z,72.40
2019-05-07T09:36:42.460Z,72.10
2019-05-07T09:39:13.095Z,72.70
2019-05-07T09:41:44.873Z,72.40
2019-05-07T09:44:15.662Z,72.30
2019-05-07T09:46:47.946Z,72.30
2019-05-07T09:49:19.030Z,72.70
2019-05-07T09:51:51.808Z,73.00
2019-05-07T09:54:23.076Z,73.00
2019-05-07T09:56:54.022Z,73.00
2019-05-07T09:59:25.105Z,72.70
2019-05-07T10:01:56.248Z,72.40
2019-05-07T10:04:27.050Z,72.10
2019-05-07T10:06:58.112Z,74.00
2019-05-07T10:09:28.981Z,73.50
2019-05-07T10:12:02.769Z,73.40
2019-05-07T10:14:33.917Z,73.50
2019-05-07T10:17:05.997Z,73.40
2019-05-07T10:19:36.901Z,73.30
2019-05-07T10:22:07.569Z,74.00
2019-05-07T10:24:38.381Z,73.60
2019-05-07T10:27:12.474Z,73.20
2019-05-07T10:29:42.878Z,72.60
2019-05-07T10:32:13.772Z,72.80
2019-05-07T10:34:45.621Z,73.10
2019-05-07T10:37:16.711Z,73.30
2019-05-07T10:39:47.355Z,74.00
2019-05-07T10:42:18.512Z,73.10
2019-05-07T10:44:52.417Z,73.80
2019-05-07T10:47:24.177Z,75.10
2019-05-07T10:49:59.018Z,75.30
2019-05-07T10:52:28.446Z,74.90
2019-05-07T10:54:59.994Z,75.00
2019-05-07T10:57:32.774Z,75.30
2019-05-07T11:00:03.291Z,76.30
2019-05-07T11:02:34.489Z,75.90
2019-05-07T11:05:06.826Z,75.10
2019-05-07T11:07:37.781Z,77.20
2019-05-07T11:10:12.523Z,76.50
2019-05-07T11:12:43.566Z,76.30
2019-05-07T11:15:17.185Z,77.00
2019-05-07T11:17:49.197Z,77.50
2019-05-07T11:20:22.599Z,78.30
2019-05-07T11:22:53.433Z,77.50
2019-05-07T11:25:24.636Z,77.50
2019-05-07T11:27:55.460Z,76.90
2019-05-07T11:30:26.370Z,77.70
2019-05-07T11:32:57.296Z,77.70
2019-05-07T11:35:28.252Z,78.10
2019-05-07T11:37:59.101Z,77.70
2019-05-07T11:40:32.162Z,77.30
2019-05-07T11:43:03.647Z,77.30
2019-05-07T11:45:36.338Z,76.90
2019-05-07T11:48:07.638Z,77.10
2019-05-07T11:50:39.740Z,77.50
2019-05-07T11:53:11.772Z,78.10
2019-05-07T11:55:42.660Z,78.30
2019-05-07T11:58:13.576Z,78.90
2019-05-07T12:00:46.184Z,78.60
2019-05-07T12:03:17.285Z,78.10
2019-05-07T12:05:47.979Z,78.70
2019-05-07T12:08:18.836Z,79.40
2019-05-07T12:10:51.673Z,79.50
2019-05-07T12:13:21.956Z,79.10
2019-05-07T12:15:52.817Z,78.80
2019-05-07T12:18:23.775Z,78.50
2019-05-07T12:20:54.747Z,79.00
2019-05-07T12:23:25.779Z,79.10
2019-05-07T12:25:56.743Z,79.20
2019-05-07T12:28:27.545Z,79.10
2019-05-07T12:30:59.598Z,79.30
2019-05-07T12:33:32.346Z,79.20
2019-05-07T12:36:02.493Z,79.00
2019-05-07T12:38:33.395Z,78.90
2019-05-07T12:41:05.589Z,79.20
2019-05-07T12:43:36.513Z,79.10
2019-05-07T12:46:07.363Z,79.10
2019-05-07T12:48:38.179Z,79.20
2019-05-07T12:51:08.884Z,79.10
2019-05-07T12:53:42.438Z,79.10
2019-05-07T12:56:13.438Z,79.30
2019-05-07T12:58:44.145Z,79.30
2019-05-07T13:01:16.189Z,79.70
2019-05-07T13:03:48.477Z,79.70
2019-05-07T13:06:19.339Z,79.90
2019-05-07T13:08:52.216Z,79.80
2019-05-07T13:11:25.661Z,79.70
2019-05-07T13:13:56.511Z,79.70
2019-05-07T13:16:27.242Z,79.60
2019-05-07T13:18:58.098Z,79.70
2019-05-07T13:21:28.816Z,80.00
2019-05-07T13:23:59.528Z,80.00
2019-05-07T13:26:32.028Z,80.20
2019-05-07T13:29:03.259Z,80.50
2019-05-07T13:31:36.045Z,80.70
2019-05-07T13:34:07.138Z,80.70
2019-05-07T13:36:39.530Z,80.50
2019-05-07T13:39:11.019Z,80.80
2019-05-07T13:41:41.606Z,80.90
2019-05-07T13:44:14.486Z,81.00
2019-05-07T13:46:46.779Z,80.70
2019-05-07T13:49:18.303Z,79.90
2019-05-07T13:52:00.997Z,80.70
2019-05-07T13:54:21.821Z,80.40
2019-05-07T13:56:52.684Z,80.20
2019-05-07T13:59:23.734Z,80.00
2019-05-07T14:01:55.899Z,80.00
2019-05-07T14:04:27.311Z,79.80
2019-05-07T14:07:01.785Z,79.50
2019-05-07T14:09:32.624Z,79.00
2019-05-07T14:12:03.736Z,79.10
2019-05-07T14:14:34.943Z,79.10
2019-05-07T14:17:05.974Z,80.20
2019-05-07T14:19:37.028Z,79.60
2019-05-07T14:22:15.527Z,79.70
2019-05-07T14:24:42.078Z,79.50
2019-05-07T14:27:12.217Z,79.20
2019-05-07T14:29:43.126Z,79.50
2019-05-07T14:32:15.336Z,79.70
2019-05-07T14:34:47.290Z,80.00
2019-05-07T14:37:19.309Z,80.50
2019-05-07T14:39:51.805Z,80.00
2019-05-07T14:42:23.508Z,80.40
2019-05-07T14:44:54.373Z,80.70
2019-05-07T14:47:25.484Z,81.80
2019-05-07T14:49:56.248Z,81.80
2019-05-07T14:52:32.576Z,81.60
2019-05-07T14:54:59.232Z,81.10
2019-05-07T14:57:30.089Z,80.60
2019-05-07T15:00:03.079Z,80.60
2019-05-07T15:02:33.180Z,80.90
2019-05-07T15:05:04.012Z,81.10
2019-05-07T15:07:35.856Z,81.30
2019-05-07T15:10:08.616Z,81.80
2019-05-07T15:12:39.589Z,81.90
2019-05-07T15:15:12.624Z,81.90
2019-05-07T15:17:44.698Z,81.70
2019-05-07T15:20:16.148Z,81.40
2019-05-07T15:22:49.926Z,81.20
2019-05-07T15:25:22.532Z,81.00
2019-05-07T15:27:53.311Z,81.10
2019-05-07T15:30:25.546Z,82.40
2019-05-07T15:32:56.430Z,82.70
2019-05-07T15:35:27.292Z,82.30
2019-05-07T15:37:58.168Z,82.80
2019-05-07T15:40:28.959Z,82.70
2019-05-07T15:43:02.022Z,83.20
2019-05-07T15:45:31.947Z,82.80
2019-05-07T15:48:02.541Z,82.60
2019-05-07T15:50:33.451Z,82.10
2019-05-07T15:53:05.645Z,83.00
2019-05-07T15:55:36.633Z,83.00
2019-05-07T15:58:07.571Z,83.30
2019-05-07T16:00:39.346Z,83.70
2019-05-07T16:03:11.905Z,83.60
2019-05-07T16:05:42.527Z,83.60
2019-05-07T16:08:14.863Z,83.50
2019-05-07T16:10:45.624Z,83.50
2019-05-07T16:13:17.782Z,83.60
2019-05-07T16:15:48.770Z,83.60
2019-05-07T16:18:19.299Z,83.90
2019-05-07T16:20:52.156Z,83.70
2019-05-07T16:23:22.366Z,83.60
2019-05-07T16:25:53.159Z,83.30
2019-05-07T16:28:24.110Z,82.90
2019-05-07T16:30:55.096Z,82.90
2019-05-07T16:33:25.945Z,82.60
2019-05-07T16:35:56.835Z,83.50
2019-05-07T16:38:27.479Z,82.50
2019-05-07T16:40:58.265Z,82.20
2019-05-07T16:43:29.182Z,81.80
2019-05-07T16:45:59.965Z,81.60
2019-05-07T16:48:32.527Z,81.50
2019-05-07T16:51:02.959Z,81.60
2019-05-07T16:53:35.330Z,81.40
2019-05-07T16:56:05.955Z,81.00
2019-05-07T16:58:38.635Z,80.80
2019-05-07T17:01:10.832Z,80.90
2019-05-07T17:03:43.252Z,80.80
2019-05-07T17:06:14.022Z,80.80
2019-05-07T17:08:46.083Z,80.60
2019-05-07T17:11:16.911Z,81.00
2019-05-07T17:13:48.530Z,81.90
2019-05-07T17:16:19.542Z,82.20
2019-05-07T17:18:51.887Z,81.70
2019-05-07T17:21:22.764Z,82.20
2019-05-07T17:23:53.609Z,81.20
2019-05-07T17:26:24.365Z,81.20
2019-05-07T17:28:55.221Z,81.10
2019-05-07T17:31:26.030Z,81.90
2019-05-07T17:33:56.799Z,81.50
2019-05-07T17:36:27.541Z,81.30
2019-05-07T17:38:58.364Z,82.20
2019-05-07T17:41:29.013Z,81.90
2019-05-07T17:44:02.439Z,82.30
2019-05-07T17:46:32.711Z,82.40
2019-05-07T17:49:04.097Z,82.30
2019-05-07T17:51:36.208Z,82.20
2019-05-07T17:54:07.212Z,82.40
2019-05-07T17:56:38.240Z,82.40
2019-05-07T17:59:09.254Z,82.50
2019-05-07T18:01:41.937Z,82.60
2019-05-07T18:04:12.844Z,82.60
2019-05-07T18:06:43.535Z,82.60
2019-05-07T18:09:14.494Z,82.50
2019-05-07T18:11:45.228Z,82.40
2019-05-07T18:14:16.121Z,82.60
2019-05-07T18:16:48.187Z,82.50
2019-05-07T18:19:19.365Z,82.60
2019-05-07T18:21:52.343Z,82.80
2019-05-07T18:24:22.436Z,82.60
2019-05-07T18:26:53.350Z,82.40
2019-05-07T18:29:24.179Z,82.10
2019-05-07T18:31:57.115Z,82.20
2019-05-07T18:34:27.976Z,82.30
2019-05-07T18:36:58.919Z,82.10
2019-05-07T18:39:32.172Z,82.20
2019-05-07T18:42:02.801Z,82.10
2019-05-07T18:44:33.784Z,82.50
2019-05-07T18:47:04.759Z,83.90
2019-05-07T18:49:35.664Z,84.40
2019-05-07T18:52:06.603Z,85.00
2019-05-07T18:54:37.456Z,84.50
2019-05-07T18:57:08.256Z,84.30
2019-05-07T18:59:39.179Z,84.70
2019-05-07T19:02:09.921Z,84.30
2019-05-07T19:04:42.255Z,83.80
2019-05-07T19:07:13.441Z,83.80
2019-05-07T19:09:44.341Z,83.50
2019-05-07T19:12:16.592Z,83.20
2019-05-07T19:14:47.403Z,83.90
2019-05-07T19:17:18.463Z,83.50
2019-05-07T19:19:49.315Z,83.40
2019-05-07T19:22:22.087Z,84.00
2019-05-07T19:24:52.715Z,82.90
2019-05-07T19:27:23.593Z,82.80
2019-05-07T19:29:54.464Z,82.80
2019-05-07T19:32:25.614Z,82.60
2019-05-07T19:34:56.483Z,82.20
2019-05-07T19:37:27.188Z,82.20
2019-05-07T19:39:58.137Z,82.60
2019-05-07T19:42:29.088Z,82.70
2019-05-07T19:45:02.489Z,82.50
2019-05-07T19:47:32.715Z,82.40
2019-05-07T19:50:03.651Z,82.50
2019-05-07T19:52:34.425Z,82.50
2019-05-07T19:55:07.715Z,82.40
2019-05-07T19:57:39.792Z,82.20
2019-05-07T20:00:12.126Z,82.70
2019-05-07T20:02:44.418Z,83.00
2019-05-07T20:05:15.440Z,82.80
2019-05-07T20:07:46.692Z,82.80
2019-05-07T20:10:18.958Z,82.90
2019-05-07T20:12:52.065Z,83.10
2019-05-07T20:15:22.387Z,83.00
2019-05-07T20:17:53.207Z,83.00
2019-05-07T20:20:24.040Z,82.80
2019-05-07T20:22:54.902Z,82.90
2019-05-07T20:25:26.116Z,83.20
2019-05-07T20:27:56.983Z,82.90
2019-05-07T20:30:27.842Z,83.00
2019-05-07T20:32:58.796Z,82.70
2019-05-07T20:35:29.611Z,82.80
2019-05-07T20:38:02.748Z,83.00
2019-05-07T20:40:32.720Z,83.00
2019-05-07T20:43:03.386Z,82.80
2019-05-07T20:45:34.139Z,83.00
2019-05-07T20:48:05.128Z,82.90
2019-05-07T20:50:36.075Z,83.00
2019-05-07T20:53:07.032Z,82.90
2019-05-07T20:55:39.217Z,82.70
2019-05-07T20:58:12.674Z,82.70
2019-05-07T21:00:43.364Z,82.80
2019-05-07T21:03:15.689Z,82.80
2019-05-07T21:05:46.574Z,82.90
2019-05-07T21:08:17.297Z,83.30
2019-05-07T21:10:48.268Z,83.20
2019-05-07T21:13:28.405Z,82.80
2019-05-07T21:15:52.626Z,82.70
2019-05-07T21:18:23.747Z,82.70
2019-05-07T21:20:54.701Z,82.50
2019-05-07T21:23:25.622Z,82.60
2019-05-07T21:25:56.513Z,82.50
2019-05-07T21:28:27.354Z,82.40
2019-05-07T21:30:58.055Z,82.60
2019-05-07T21:33:28.799Z,82.50
2019-05-07T21:35:59.668Z,82.50
2019-05-07T21:38:32.732Z,82.50
2019-05-07T21:41:02.747Z,82.30
2019-05-07T21:43:33.515Z,82.50
2019-05-07T21:46:04.424Z,82.40
2019-05-07T21:48:35.398Z,82.50
2019-05-07T21:51:06.220Z,82.30
2019-05-07T21:53:38.360Z,82.30
2019-05-07T21:56:12.234Z,82.30
2019-05-07T21:58:43.768Z,82.40
2019-05-07T22:01:16.214Z,82.00
2019-05-07T22:03:48.336Z,82.00
2019-05-07T22:06:19.378Z,82.10
2019-05-07T22:08:52.253Z,82.00
2019-05-07T22:11:22.937Z,82.10
2019-05-07T22:13:54.831Z,82.20
2019-05-07T22:16:26.036Z,82.20
2019-05-07T22:18:56.993Z,82.20
2019-05-07T22:21:27.945Z,81.90
2019-05-07T22:23:58.979Z,81.60
2019-05-07T22:26:32.016Z,81.60
